sensor_id;sensor_type;location;lat;lon;timestamp;P1;P2;P0
73623;PMS5003;61921;53.226;-1.296;2023-07-24T00:00:19;5;4;
73623;PMS5003;61921;53.226;-1.296;2023-07-24T00:02:44;3;3;
73623;PMS5003;61921;53.226;-1.296;2023-07-24T00:05:09;3;1;
73623;PMS5003;61921;53.226;-1.296;2023-07-24T00:07:34;2;2;
73623;PMS5003;61921;53.226;-1.296;2023-07-24T00:10:00;3;3;
73623;PMS5003;61921;53.226;-1.296;2023-07-24T00:12:25;3;3;
73623;PMS5003;61921;53.226;-1.296;2023-07-24T00:14:51;3;3;
73623;PMS5003;61921;53.226;-1.296;2023-07-24T00:17:16;8;4;
73623;PMS5003;61921;53.226;-1.296;2023-07-24T00:19:41;2;2;
73623;PMS5003;61921;53.226;-1.296;2023-07-24T00:22:07;2;1;
73623;PMS5003;61921;53.226;-1.296;2023-07-24T00:24:32;2;2;
73623;PMS5003;61921;53.226;-1.296;2023-07-24T00:26:57;5;4;
73623;PMS5003;61921;53.226;-1.296;2023-07-24T00:29:23;2;2;
73623;PMS5003;61921;53.226;-1.296;2023-07-24T00:31:49;3;3;
73623;PMS5003;61921;53.226;-1.296;2023-07-24T00:34:13;3;3;
73623;PMS5003;61921;53.226;-1.296;2023-07-24T00:36:39;2;2;
73623;PMS5003;61921;53.226;-1.296;2023-07-24T00:39:04;4;4;
73623;PMS5003;61921;53.226;-1.296;2023-07-24T00:41:29;2;2;
73623;PMS5003;61921;53.226;-1.296;2023-07-24T00:43:54;3;3;
73623;PMS5003;61921;53.226;-1.296;2023-07-24T00:46:20;2;2;
73623;PMS5003;61921;53.226;-1.296;2023-07-24T00:48:45;3;3;
73623;PMS5003;61921;53.226;-1.296;2023-07-24T00:51:11;2;1;
73623;PMS5003;61921;53.226;-1.296;2023-07-24T00:53:36;4;3;
73623;PMS5003;61921;53.226;-1.296;2023-07-24T00:56:02;4;4;
73623;PMS5003;61921;53.226;-1.296;2023-07-24T00:58:26;6;3;
73623;PMS5003;61921;53.226;-1.296;2023-07-24T01:00:52;4;3;
73623;PMS5003;61921;53.226;-1.296;2023-07-24T01:03:17;4;4;
73623;PMS5003;61921;53.226;-1.296;2023-07-24T01:05:42;5;5;
73623;PMS5003;61921;53.226;-1.296;2023-07-24T01:08:08;7;4;
73623;PMS5003;61921;53.226;-1.296;2023-07-24T01:10:33;5;5;
73623;PMS5003;61921;53.226;-1.296;2023-07-24T01:12:59;7;4;
73623;PMS5003;61921;53.226;-1.296;2023-07-24T01:15:25;6;6;
73623;PMS5003;61921;53.226;-1.296;2023-07-24T01:17:50;5;4;
73623;PMS5003;61921;53.226;-1.296;2023-07-24T01:20:15;5;5;
73623;PMS5003;61921;53.226;-1.296;2023-07-24T01:22:44;6;6;
73623;PMS5003;61921;53.226;-1.296;2023-07-24T01:25:09;5;4;
73623;PMS5003;61921;53.226;-1.296;2023-07-24T01:27:30;5;5;
73623;PMS5003;61921;53.226;-1.296;2023-07-24T01:29:56;6;6;
73623;PMS5003;61921;53.226;-1.296;2023-07-24T01:32:21;6;6;
73623;PMS5003;61921;53.226;-1.296;2023-07-24T01:34:46;6;6;
73623;PMS5003;61921;53.226;-1.296;2023-07-24T01:37:12;7;6;
73623;PMS5003;61921;53.226;-1.296;2023-07-24T01:39:37;8;6;
73623;PMS5003;61921;53.226;-1.296;2023-07-24T01:42:02;6;6;
73623;PMS5003;61921;53.226;-1.296;2023-07-24T01:44:28;6;6;
73623;PMS5003;61921;53.226;-1.296;2023-07-24T01:46:53;5;5;
73623;PMS5003;61921;53.226;-1.296;2023-07-24T01:49:18;6;6;
73623;PMS5003;61921;53.226;-1.296;2023-07-24T01:51:44;7;7;
73623;PMS5003;61921;53.226;-1.296;2023-07-24T01:54:09;7;7;
73623;PMS5003;61921;53.226;-1.296;2023-07-24T01:56:35;4;4;
73623;PMS5003;61921;53.226;-1.296;2023-07-24T01:59:00;5;5;
73623;PMS5003;61921;53.226;-1.296;2023-07-24T02:01:25;7;7;
73623;PMS5003;61921;53.226;-1.296;2023-07-24T02:03:50;7;7;
73623;PMS5003;61921;53.226;-1.296;2023-07-24T02:06:16;7;7;
73623;PMS5003;61921;53.226;-1.296;2023-07-24T02:08:41;11;8;
73623;PMS5003;61921;53.226;-1.296;2023-07-24T02:11:06;7;7;
73623;PMS5003;61921;53.226;-1.296;2023-07-24T02:13:32;8;8;
73623;PMS5003;61921;53.226;-1.296;2023-07-24T02:15:57;5;5;
73623;PMS5003;61921;53.226;-1.296;2023-07-24T02:18:22;8;7;
73623;PMS5003;61921;53.226;-1.296;2023-07-24T02:20:49;12;10;
73623;PMS5003;61921;53.226;-1.296;2023-07-24T02:23:13;6;6;
73623;PMS5003;61921;53.226;-1.296;2023-07-24T02:25:38;9;6;
73623;PMS5003;61921;53.226;-1.296;2023-07-24T02:28:04;12;9;
73623;PMS5003;61921;53.226;-1.296;2023-07-24T02:30:29;6;6;
73623;PMS5003;61921;53.226;-1.296;2023-07-24T02:32:54;7;7;
73623;PMS5003;61921;53.226;-1.296;2023-07-24T02:35:20;7;7;
73623;PMS5003;61921;53.226;-1.296;2023-07-24T02:37:45;8;7;
73623;PMS5003;61921;53.226;-1.296;2023-07-24T02:40:11;6;6;
73623;PMS5003;61921;53.226;-1.296;2023-07-24T02:42:36;6;6;
73623;PMS5003;61921;53.226;-1.296;2023-07-24T02:45:01;7;7;
73623;PMS5003;61921;53.226;-1.296;2023-07-24T02:47:27;9;5;
73623;PMS5003;61921;53.226;-1.296;2023-07-24T02:49:52;8;8;
73623;PMS5003;61921;53.226;-1.296;2023-07-24T02:52:18;7;6;
73623;PMS5003;61921;53.226;-1.296;2023-07-24T02:54:43;8;8;
73623;PMS5003;61921;53.226;-1.296;2023-07-24T02:57:08;7;7;
73623;PMS5003;61921;53.226;-1.296;2023-07-24T02:59:34;8;6;
73623;PMS5003;61921;53.226;-1.296;2023-07-24T03:01:59;8;7;
73623;PMS5003;61921;53.226;-1.296;2023-07-24T03:04:24;9;6;
73623;PMS5003;61921;53.226;-1.296;2023-07-24T03:06:50;7;6;
73623;PMS5003;61921;53.226;-1.296;2023-07-24T03:09:16;10;8;
73623;PMS5003;61921;53.226;-1.296;2023-07-24T03:11:41;5;5;
73623;PMS5003;61921;53.226;-1.296;2023-07-24T03:14:06;8;7;
73623;PMS5003;61921;53.226;-1.296;2023-07-24T03:16:32;6;6;
73623;PMS5003;61921;53.226;-1.296;2023-07-24T03:18:57;8;7;
73623;PMS5003;61921;53.226;-1.296;2023-07-24T03:21:23;8;7;
73623;PMS5003;61921;53.226;-1.296;2023-07-24T03:23:48;8;7;
73623;PMS5003;61921;53.226;-1.296;2023-07-24T03:26:14;8;5;
73623;PMS5003;61921;53.226;-1.296;2023-07-24T03:28:39;6;6;
73623;PMS5003;61921;53.226;-1.296;2023-07-24T03:31:04;8;6;
73623;PMS5003;61921;53.226;-1.296;2023-07-24T03:33:29;7;7;
73623;PMS5003;61921;53.226;-1.296;2023-07-24T03:35:55;7;6;
73623;PMS5003;61921;53.226;-1.296;2023-07-24T03:38:20;8;8;
73623;PMS5003;61921;53.226;-1.296;2023-07-24T03:40:45;6;5;
73623;PMS5003;61921;53.226;-1.296;2023-07-24T03:43:11;7;7;
73623;PMS5003;61921;53.226;-1.296;2023-07-24T03:45:36;7;5;
73623;PMS5003;61921;53.226;-1.296;2023-07-24T03:48:02;7;6;
73623;PMS5003;61921;53.226;-1.296;2023-07-24T03:50:28;7;7;
73623;PMS5003;61921;53.226;-1.296;2023-07-24T03:52:53;8;7;
73623;PMS5003;61921;53.226;-1.296;2023-07-24T03:55:18;6;6;
73623;PMS5003;61921;53.226;-1.296;2023-07-24T03:57:43;6;6;
73623;PMS5003;61921;53.226;-1.296;2023-07-24T04:00:09;6;6;
73623;PMS5003;61921;53.226;-1.296;2023-07-24T04:02:34;8;7;
73623;PMS5003;61921;53.226;-1.296;2023-07-24T04:04:59;6;6;
73623;PMS5003;61921;53.226;-1.296;2023-07-24T04:07:25;8;7;
73623;PMS5003;61921;53.226;-1.296;2023-07-24T04:09:50;8;8;
73623;PMS5003;61921;53.226;-1.296;2023-07-24T04:12:15;6;6;
73623;PMS5003;61921;53.226;-1.296;2023-07-24T04:14:41;6;6;
73623;PMS5003;61921;53.226;-1.296;2023-07-24T04:17:06;6;6;
73623;PMS5003;61921;53.226;-1.296;2023-07-24T04:19:31;8;7;
73623;PMS5003;61921;53.226;-1.296;2023-07-24T04:21:57;9;7;
73623;PMS5003;61921;53.226;-1.296;2023-07-24T04:24:22;6;6;
73623;PMS5003;61921;53.226;-1.296;2023-07-24T04:26:47;8;7;
73623;PMS5003;61921;53.226;-1.296;2023-07-24T04:29:13;7;7;
73623;PMS5003;61921;53.226;-1.296;2023-07-24T04:31:38;7;7;
73623;PMS5003;61921;53.226;-1.296;2023-07-24T04:34:03;7;7;
73623;PMS5003;61921;53.226;-1.296;2023-07-24T04:36:29;9;9;
73623;PMS5003;61921;53.226;-1.296;2023-07-24T04:38:54;8;7;
73623;PMS5003;61921;53.226;-1.296;2023-07-24T04:41:19;10;8;
73623;PMS5003;61921;53.226;-1.296;2023-07-24T04:43:44;8;8;
73623;PMS5003;61921;53.226;-1.296;2023-07-24T04:46:10;7;7;
73623;PMS5003;61921;53.226;-1.296;2023-07-24T04:48:35;8;8;
73623;PMS5003;61921;53.226;-1.296;2023-07-24T04:51:01;8;8;
73623;PMS5003;61921;53.226;-1.296;2023-07-24T04:53:26;6;6;
73623;PMS5003;61921;53.226;-1.296;2023-07-24T04:55:51;10;10;
73623;PMS5003;61921;53.226;-1.296;2023-07-24T04:58:16;8;8;
73623;PMS5003;61921;53.226;-1.296;2023-07-24T05:00:42;10;10;
73623;PMS5003;61921;53.226;-1.296;2023-07-24T05:03:07;7;7;
73623;PMS5003;61921;53.226;-1.296;2023-07-24T05:05:32;10;8;
73623;PMS5003;61921;53.226;-1.296;2023-07-24T05:07:58;9;9;
73623;PMS5003;61921;53.226;-1.296;2023-07-24T05:10:23;9;9;
73623;PMS5003;61921;53.226;-1.296;2023-07-24T05:12:48;10;10;
73623;PMS5003;61921;53.226;-1.296;2023-07-24T05:15:14;8;8;
73623;PMS5003;61921;53.226;-1.296;2023-07-24T05:17:39;11;11;
73623;PMS5003;61921;53.226;-1.296;2023-07-24T05:20:06;17;15;
73623;PMS5003;61921;53.226;-1.296;2023-07-24T05:22:30;11;11;
73623;PMS5003;61921;53.226;-1.296;2023-07-24T05:24:55;13;9;
73623;PMS5003;61921;53.226;-1.296;2023-07-24T05:27:21;11;10;
73623;PMS5003;61921;53.226;-1.296;2023-07-24T05:29:46;14;11;
73623;PMS5003;61921;53.226;-1.296;2023-07-24T05:32:11;13;13;
73623;PMS5003;61921;53.226;-1.296;2023-07-24T05:34:37;10;10;
73623;PMS5003;61921;53.226;-1.296;2023-07-24T05:37:03;13;13;
73623;PMS5003;61921;53.226;-1.296;2023-07-24T05:39:29;16;12;
73623;PMS5003;61921;53.226;-1.296;2023-07-24T05:41:53;14;13;
73623;PMS5003;61921;53.226;-1.296;2023-07-24T05:44:19;11;11;
73623;PMS5003;61921;53.226;-1.296;2023-07-24T05:46:44;12;12;
73623;PMS5003;61921;53.226;-1.296;2023-07-24T05:49:10;10;10;
73623;PMS5003;61921;53.226;-1.296;2023-07-24T05:51:35;13;12;
73623;PMS5003;61921;53.226;-1.296;2023-07-24T05:54:01;12;12;
73623;PMS5003;61921;53.226;-1.296;2023-07-24T05:56:26;13;13;
73623;PMS5003;61921;53.226;-1.296;2023-07-24T05:58:51;12;11;
73623;PMS5003;61921;53.226;-1.296;2023-07-24T06:01:17;10;10;
73623;PMS5003;61921;53.226;-1.296;2023-07-24T06:03:42;12;12;
73623;PMS5003;61921;53.226;-1.296;2023-07-24T06:06:07;13;13;
73623;PMS5003;61921;53.226;-1.296;2023-07-24T06:08:32;15;12;
73623;PMS5003;61921;53.226;-1.296;2023-07-24T06:10:57;21;13;
73623;PMS5003;61921;53.226;-1.296;2023-07-24T06:13:23;14;14;
73623;PMS5003;61921;53.226;-1.296;2023-07-24T06:15:48;17;15;
73623;PMS5003;61921;53.226;-1.296;2023-07-24T06:18:14;13;12;
73623;PMS5003;61921;53.226;-1.296;2023-07-24T06:20:39;13;13;
73623;PMS5003;61921;53.226;-1.296;2023-07-24T06:23:05;16;16;
73623;PMS5003;61921;53.226;-1.296;2023-07-24T06:25:30;11;11;
73623;PMS5003;61921;53.226;-1.296;2023-07-24T06:27:55;14;14;
73623;PMS5003;61921;53.226;-1.296;2023-07-24T06:30:21;13;11;
73623;PMS5003;61921;53.226;-1.296;2023-07-24T06:32:47;15;13;
73623;PMS5003;61921;53.226;-1.296;2023-07-24T06:35:12;10;10;
73623;PMS5003;61921;53.226;-1.296;2023-07-24T06:37:37;15;13;
73623;PMS5003;61921;53.226;-1.296;2023-07-24T06:40:03;12;10;
73623;PMS5003;61921;53.226;-1.296;2023-07-24T06:42:28;13;12;
73623;PMS5003;61921;53.226;-1.296;2023-07-24T06:44:53;12;12;
73623;PMS5003;61921;53.226;-1.296;2023-07-24T06:47:19;12;11;
73623;PMS5003;61921;53.226;-1.296;2023-07-24T06:49:44;11;10;
73623;PMS5003;61921;53.226;-1.296;2023-07-24T06:52:10;15;12;
73623;PMS5003;61921;53.226;-1.296;2023-07-24T06:54:35;17;14;
73623;PMS5003;61921;53.226;-1.296;2023-07-24T06:57:01;12;12;
73623;PMS5003;61921;53.226;-1.296;2023-07-24T06:59:26;16;14;
73623;PMS5003;61921;53.226;-1.296;2023-07-24T07:01:51;11;10;
73623;PMS5003;61921;53.226;-1.296;2023-07-24T07:04:16;15;15;
73623;PMS5003;61921;53.226;-1.296;2023-07-24T07:06:41;13;13;
73623;PMS5003;61921;53.226;-1.296;2023-07-24T07:09:07;14;14;
73623;PMS5003;61921;53.226;-1.296;2023-07-24T07:11:32;15;12;
73623;PMS5003;61921;53.226;-1.296;2023-07-24T07:13:57;14;14;
73623;PMS5003;61921;53.226;-1.296;2023-07-24T07:16:23;12;12;
73623;PMS5003;61921;53.226;-1.296;2023-07-24T07:18:49;11;11;
73623;PMS5003;61921;53.226;-1.296;2023-07-24T07:21:14;12;12;
73623;PMS5003;61921;53.226;-1.296;2023-07-24T07:23:39;17;12;
73623;PMS5003;61921;53.226;-1.296;2023-07-24T07:26:04;15;13;
73623;PMS5003;61921;53.226;-1.296;2023-07-24T07:28:30;16;15;
73623;PMS5003;61921;53.226;-1.296;2023-07-24T07:30:55;14;12;
73623;PMS5003;61921;53.226;-1.296;2023-07-24T07:33:21;12;12;
73623;PMS5003;61921;53.226;-1.296;2023-07-24T07:35:46;9;9;
73623;PMS5003;61921;53.226;-1.296;2023-07-24T07:38:12;17;14;
73623;PMS5003;61921;53.226;-1.296;2023-07-24T07:40:37;11;11;
73623;PMS5003;61921;53.226;-1.296;2023-07-24T07:43:02;12;10;
73623;PMS5003;61921;53.226;-1.296;2023-07-24T07:45:28;19;16;
73623;PMS5003;61921;53.226;-1.296;2023-07-24T07:47:53;13;10;
73623;PMS5003;61921;53.226;-1.296;2023-07-24T07:50:19;9;9;
73623;PMS5003;61921;53.226;-1.296;2023-07-24T07:52:44;12;9;
73623;PMS5003;61921;53.226;-1.296;2023-07-24T07:55:10;13;11;
73623;PMS5003;61921;53.226;-1.296;2023-07-24T07:57:35;10;10;
73623;PMS5003;61921;53.226;-1.296;2023-07-24T08:00:00;11;11;
73623;PMS5003;61921;53.226;-1.296;2023-07-24T08:02:26;13;10;
73623;PMS5003;61921;53.226;-1.296;2023-07-24T08:04:51;11;8;
73623;PMS5003;61921;53.226;-1.296;2023-07-24T08:07:16;13;11;
73623;PMS5003;61921;53.226;-1.296;2023-07-24T08:09:42;13;13;
73623;PMS5003;61921;53.226;-1.296;2023-07-24T08:12:08;13;10;
73623;PMS5003;61921;53.226;-1.296;2023-07-24T08:14:33;10;9;
73623;PMS5003;61921;53.226;-1.296;2023-07-24T08:16:58;10;9;
73623;PMS5003;61921;53.226;-1.296;2023-07-24T08:19:24;12;10;
73623;PMS5003;61921;53.226;-1.296;2023-07-24T08:21:48;14;12;
73623;PMS5003;61921;53.226;-1.296;2023-07-24T08:24:14;17;14;
73623;PMS5003;61921;53.226;-1.296;2023-07-24T08:26:40;11;9;
73623;PMS5003;61921;53.226;-1.296;2023-07-24T08:29:05;11;10;
73623;PMS5003;61921;53.226;-1.296;2023-07-24T08:31:31;10;10;
73623;PMS5003;61921;53.226;-1.296;2023-07-24T08:33:56;11;9;
73623;PMS5003;61921;53.226;-1.296;2023-07-24T08:36:21;8;8;
73623;PMS5003;61921;53.226;-1.296;2023-07-24T08:38:46;11;9;
73623;PMS5003;61921;53.226;-1.296;2023-07-24T08:41:12;12;9;
73623;PMS5003;61921;53.226;-1.296;2023-07-24T08:43:38;11;9;
73623;PMS5003;61921;53.226;-1.296;2023-07-24T08:46:03;10;9;
73623;PMS5003;61921;53.226;-1.296;2023-07-24T08:48:29;11;9;
73623;PMS5003;61921;53.226;-1.296;2023-07-24T08:50:53;12;10;
73623;PMS5003;61921;53.226;-1.296;2023-07-24T08:53:18;17;14;
73623;PMS5003;61921;53.226;-1.296;2023-07-24T08:55:43;12;9;
73623;PMS5003;61921;53.226;-1.296;2023-07-24T08:58:09;11;10;
73623;PMS5003;61921;53.226;-1.296;2023-07-24T09:00:34;14;11;
73623;PMS5003;61921;53.226;-1.296;2023-07-24T09:02:59;12;11;
73623;PMS5003;61921;53.226;-1.296;2023-07-24T09:05:25;12;10;
73623;PMS5003;61921;53.226;-1.296;2023-07-24T09:07:50;12;9;
73623;PMS5003;61921;53.226;-1.296;2023-07-24T09:10:16;12;10;
73623;PMS5003;61921;53.226;-1.296;2023-07-24T09:12:41;9;9;
73623;PMS5003;61921;53.226;-1.296;2023-07-24T09:15:06;12;11;
73623;PMS5003;61921;53.226;-1.296;2023-07-24T09:17:31;9;9;
73623;PMS5003;61921;53.226;-1.296;2023-07-24T09:19:57;13;11;
73623;PMS5003;61921;53.226;-1.296;2023-07-24T09:22:22;11;10;
73623;PMS5003;61921;53.226;-1.296;2023-07-24T09:24:49;9;8;
73623;PMS5003;61921;53.226;-1.296;2023-07-24T09:27:12;12;11;
73623;PMS5003;61921;53.226;-1.296;2023-07-24T09:29:38;11;11;
73623;PMS5003;61921;53.226;-1.296;2023-07-24T09:32:04;11;11;
73623;PMS5003;61921;53.226;-1.296;2023-07-24T09:34:29;9;9;
73623;PMS5003;61921;53.226;-1.296;2023-07-24T09:36:54;9;9;
73623;PMS5003;61921;53.226;-1.296;2023-07-24T09:39:22;11;9;
73623;PMS5003;61921;53.226;-1.296;2023-07-24T09:41:45;14;11;
73623;PMS5003;61921;53.226;-1.296;2023-07-24T09:44:11;10;10;
73623;PMS5003;61921;53.226;-1.296;2023-07-24T09:46:36;10;9;
73623;PMS5003;61921;53.226;-1.296;2023-07-24T09:49:01;10;10;
73623;PMS5003;61921;53.226;-1.296;2023-07-24T09:51:28;10;8;
73623;PMS5003;61921;53.226;-1.296;2023-07-24T09:53:54;7;7;
73623;PMS5003;61921;53.226;-1.296;2023-07-24T09:56:17;14;11;
73623;PMS5003;61921;53.226;-1.296;2023-07-24T09:58:42;9;8;
73623;PMS5003;61921;53.226;-1.296;2023-07-24T10:01:08;9;7;
73623;PMS5003;61921;53.226;-1.296;2023-07-24T10:03:33;10;9;
73623;PMS5003;61921;53.226;-1.296;2023-07-24T10:05:58;7;6;
73623;PMS5003;61921;53.226;-1.296;2023-07-24T10:08:23;7;7;
73623;PMS5003;61921;53.226;-1.296;2023-07-24T10:10:49;9;8;
73623;PMS5003;61921;53.226;-1.296;2023-07-24T10:13:14;9;7;
73623;PMS5003;61921;53.226;-1.296;2023-07-24T10:15:39;9;9;
73623;PMS5003;61921;53.226;-1.296;2023-07-24T10:18:05;9;7;
73623;PMS5003;61921;53.226;-1.296;2023-07-24T10:20:34;7;5;
73623;PMS5003;61921;53.226;-1.296;2023-07-24T10:22:56;8;8;
73623;PMS5003;61921;53.226;-1.296;2023-07-24T10:25:28;10;8;
73623;PMS5003;61921;53.226;-1.296;2023-07-24T10:27:46;6;6;
73623;PMS5003;61921;53.226;-1.296;2023-07-24T10:30:11;11;8;
73623;PMS5003;61921;53.226;-1.296;2023-07-24T10:35:06;7;7;
73623;PMS5003;61921;53.226;-1.296;2023-07-24T10:37:31;7;7;
73623;PMS5003;61921;53.226;-1.296;2023-07-24T10:39:53;8;6;
73623;PMS5003;61921;53.226;-1.296;2023-07-24T10:42:22;5;5;
73623;PMS5003;61921;53.226;-1.296;2023-07-24T10:44:44;7;7;
73623;PMS5003;61921;53.226;-1.296;2023-07-24T10:47:09;9;7;
73623;PMS5003;61921;53.226;-1.296;2023-07-24T10:49:33;9;8;
73623;PMS5003;61921;53.226;-1.296;2023-07-24T10:51:58;8;8;
73623;PMS5003;61921;53.226;-1.296;2023-07-24T10:54:24;7;7;
73623;PMS5003;61921;53.226;-1.296;2023-07-24T10:56:49;6;6;
73623;PMS5003;61921;53.226;-1.296;2023-07-24T10:59:14;7;5;
73623;PMS5003;61921;53.226;-1.296;2023-07-24T11:01:39;7;6;
73623;PMS5003;61921;53.226;-1.296;2023-07-24T11:04:04;7;7;
73623;PMS5003;61921;53.226;-1.296;2023-07-24T11:06:29;6;6;
73623;PMS5003;61921;53.226;-1.296;2023-07-24T11:08:55;4;4;
73623;PMS5003;61921;53.226;-1.296;2023-07-24T11:11:20;6;6;
73623;PMS5003;61921;53.226;-1.296;2023-07-24T11:13:45;7;7;
73623;PMS5003;61921;53.226;-1.296;2023-07-24T11:16:10;6;6;
73623;PMS5003;61921;53.226;-1.296;2023-07-24T11:21:01;7;6;
73623;PMS5003;61921;53.226;-1.296;2023-07-24T11:23:26;5;5;
73623;PMS5003;61921;53.226;-1.296;2023-07-24T11:25:52;4;4;
73623;PMS5003;61921;53.226;-1.296;2023-07-24T11:28:17;4;4;
73623;PMS5003;61921;53.226;-1.296;2023-07-24T11:30:42;5;5;
73623;PMS5003;61921;53.226;-1.296;2023-07-24T11:33:08;5;5;
73623;PMS5003;61921;53.226;-1.296;2023-07-24T11:35:32;5;5;
73623;PMS5003;61921;53.226;-1.296;2023-07-24T11:37:57;4;4;
73623;PMS5003;61921;53.226;-1.296;2023-07-24T11:42:48;5;4;
73623;PMS5003;61921;53.226;-1.296;2023-07-24T11:45:13;10;9;
73623;PMS5003;61921;53.226;-1.296;2023-07-24T11:47:44;9;7;
73623;PMS5003;61921;53.226;-1.296;2023-07-24T11:50:04;4;4;
73623;PMS5003;61921;53.226;-1.296;2023-07-24T11:54:56;5;5;
73623;PMS5003;61921;53.226;-1.296;2023-07-24T11:57:19;4;4;
73623;PMS5003;61921;53.226;-1.296;2023-07-24T11:59:45;4;4;
73623;PMS5003;61921;53.226;-1.296;2023-07-24T12:02:10;3;3;
73623;PMS5003;61921;53.226;-1.296;2023-07-24T12:04:35;4;4;
73623;PMS5003;61921;53.226;-1.296;2023-07-24T12:07:00;7;7;
73623;PMS5003;61921;53.226;-1.296;2023-07-24T12:09:29;4;3;
73623;PMS5003;61921;53.226;-1.296;2023-07-24T12:11:50;8;5;
73623;PMS5003;61921;53.226;-1.296;2023-07-24T12:14:16;4;4;
73623;PMS5003;61921;53.226;-1.296;2023-07-24T12:16:41;3;3;
73623;PMS5003;61921;53.226;-1.296;2023-07-24T12:19:06;4;4;
73623;PMS5003;61921;53.226;-1.296;2023-07-24T12:21:31;5;5;
73623;PMS5003;61921;53.226;-1.296;2023-07-24T12:23:57;3;3;
73623;PMS5003;61921;53.226;-1.296;2023-07-24T12:26:22;5;5;
73623;PMS5003;61921;53.226;-1.296;2023-07-24T12:28:47;4;4;
73623;PMS5003;61921;53.226;-1.296;2023-07-24T12:31:12;4;4;
73623;PMS5003;61921;53.226;-1.296;2023-07-24T12:33:37;4;4;
73623;PMS5003;61921;53.226;-1.296;2023-07-24T12:36:03;5;3;
73623;PMS5003;61921;53.226;-1.296;2023-07-24T12:38:27;4;4;
73623;PMS5003;61921;53.226;-1.296;2023-07-24T12:40:53;4;4;
73623;PMS5003;61921;53.226;-1.296;2023-07-24T12:43:18;4;4;
73623;PMS5003;61921;53.226;-1.296;2023-07-24T12:45:43;3;3;
73623;PMS5003;61921;53.226;-1.296;2023-07-24T12:48:08;4;4;
73623;PMS5003;61921;53.226;-1.296;2023-07-24T12:50:33;4;4;
73623;PMS5003;61921;53.226;-1.296;2023-07-24T12:52:58;5;4;
73623;PMS5003;61921;53.226;-1.296;2023-07-24T12:55:23;3;3;
73623;PMS5003;61921;53.226;-1.296;2023-07-24T12:57:48;4;4;
73623;PMS5003;61921;53.226;-1.296;2023-07-24T13:00:14;4;3;
73623;PMS5003;61921;53.226;-1.296;2023-07-24T13:02:39;6;6;
73623;PMS5003;61921;53.226;-1.296;2023-07-24T13:05:04;2;2;
73623;PMS5003;61921;53.226;-1.296;2023-07-24T13:07:29;4;4;
73623;PMS5003;61921;53.226;-1.296;2023-07-24T13:09:54;5;4;
73623;PMS5003;61921;53.226;-1.296;2023-07-24T13:12:19;4;4;
73623;PMS5003;61921;53.226;-1.296;2023-07-24T13:14:45;3;3;
73623;PMS5003;61921;53.226;-1.296;2023-07-24T13:17:10;4;4;
73623;PMS5003;61921;53.226;-1.296;2023-07-24T13:19:35;5;5;
73623;PMS5003;61921;53.226;-1.296;2023-07-24T13:22:00;5;5;
73623;PMS5003;61921;53.226;-1.296;2023-07-24T13:24:25;4;4;
73623;PMS5003;61921;53.226;-1.296;2023-07-24T13:26:50;5;4;
73623;PMS5003;61921;53.226;-1.296;2023-07-24T13:29:15;3;3;
73623;PMS5003;61921;53.226;-1.296;2023-07-24T13:31:40;5;3;
73623;PMS5003;61921;53.226;-1.296;2023-07-24T13:34:05;3;3;
73623;PMS5003;61921;53.226;-1.296;2023-07-24T13:36:31;3;3;
73623;PMS5003;61921;53.226;-1.296;2023-07-24T13:38:56;4;4;
73623;PMS5003;61921;53.226;-1.296;2023-07-24T13:41:21;4;4;
73623;PMS5003;61921;53.226;-1.296;2023-07-24T13:43:46;4;4;
73623;PMS5003;61921;53.226;-1.296;2023-07-24T13:46:11;3;3;
73623;PMS5003;61921;53.226;-1.296;2023-07-24T13:48:36;3;3;
73623;PMS5003;61921;53.226;-1.296;2023-07-24T13:51:01;4;4;
73623;PMS5003;61921;53.226;-1.296;2023-07-24T13:53:27;4;4;
73623;PMS5003;61921;53.226;-1.296;2023-07-24T13:55:51;5;3;
73623;PMS5003;61921;53.226;-1.296;2023-07-24T13:58:17;5;4;
73623;PMS5003;61921;53.226;-1.296;2023-07-24T14:00:41;4;4;
73623;PMS5003;61921;53.226;-1.296;2023-07-24T14:03:07;1;1;
73623;PMS5003;61921;53.226;-1.296;2023-07-24T14:05:32;4;2;
73623;PMS5003;61921;53.226;-1.296;2023-07-24T14:07:57;3;3;
73623;PMS5003;61921;53.226;-1.296;2023-07-24T14:10:22;6;3;
73623;PMS5003;61921;53.226;-1.296;2023-07-24T14:12:47;5;5;
73623;PMS5003;61921;53.226;-1.296;2023-07-24T14:15:12;3;3;
73623;PMS5003;61921;53.226;-1.296;2023-07-24T14:17:38;4;4;
73623;PMS5003;61921;53.226;-1.296;2023-07-24T14:20:03;5;4;
73623;PMS5003;61921;53.226;-1.296;2023-07-24T14:22:28;3;3;
73623;PMS5003;61921;53.226;-1.296;2023-07-24T14:24:53;3;3;
73623;PMS5003;61921;53.226;-1.296;2023-07-24T14:27:18;6;4;
73623;PMS5003;61921;53.226;-1.296;2023-07-24T14:29:43;4;4;
73623;PMS5003;61921;53.226;-1.296;2023-07-24T14:32:09;6;4;
73623;PMS5003;61921;53.226;-1.296;2023-07-24T14:34:34;5;4;
73623;PMS5003;61921;53.226;-1.296;2023-07-24T14:36:59;3;3;
73623;PMS5003;61921;53.226;-1.296;2023-07-24T14:39:24;3;3;
73623;PMS5003;61921;53.226;-1.296;2023-07-24T14:41:49;4;4;
73623;PMS5003;61921;53.226;-1.296;2023-07-24T14:44:14;6;3;
73623;PMS5003;61921;53.226;-1.296;2023-07-24T14:46:39;3;3;
73623;PMS5003;61921;53.226;-1.296;2023-07-24T14:49:04;4;3;
73623;PMS5003;61921;53.226;-1.296;2023-07-24T14:51:29;5;4;
73623;PMS5003;61921;53.226;-1.296;2023-07-24T14:53:55;6;3;
73623;PMS5003;61921;53.226;-1.296;2023-07-24T14:56:19;4;4;
73623;PMS5003;61921;53.226;-1.296;2023-07-24T14:58:44;3;3;
73623;PMS5003;61921;53.226;-1.296;2023-07-24T15:01:09;3;1;
73623;PMS5003;61921;53.226;-1.296;2023-07-24T15:03:35;4;2;
73623;PMS5003;61921;53.226;-1.296;2023-07-24T15:06:00;4;4;
73623;PMS5003;61921;53.226;-1.296;2023-07-24T15:08:25;6;6;
73623;PMS5003;61921;53.226;-1.296;2023-07-24T15:10:50;3;3;
73623;PMS5003;61921;53.226;-1.296;2023-07-24T15:13:20;4;4;
73623;PMS5003;61921;53.226;-1.296;2023-07-24T15:15:40;5;3;
73623;PMS5003;61921;53.226;-1.296;2023-07-24T15:18:05;3;3;
73623;PMS5003;61921;53.226;-1.296;2023-07-24T15:20:30;4;4;
73623;PMS5003;61921;53.226;-1.296;2023-07-24T15:22:55;6;5;
73623;PMS5003;61921;53.226;-1.296;2023-07-24T15:25:20;4;4;
73623;PMS5003;61921;53.226;-1.296;2023-07-24T15:27:45;4;4;
73623;PMS5003;61921;53.226;-1.296;2023-07-24T15:30:11;5;4;
73623;PMS5003;61921;53.226;-1.296;2023-07-24T15:32:36;4;4;
73623;PMS5003;61921;53.226;-1.296;2023-07-24T15:35:01;5;5;
73623;PMS5003;61921;53.226;-1.296;2023-07-24T15:37:26;4;4;
73623;PMS5003;61921;53.226;-1.296;2023-07-24T15:39:51;5;4;
73623;PMS5003;61921;53.226;-1.296;2023-07-24T15:42:16;6;4;
73623;PMS5003;61921;53.226;-1.296;2023-07-24T15:44:41;7;4;
73623;PMS5003;61921;53.226;-1.296;2023-07-24T15:47:06;6;5;
73623;PMS5003;61921;53.226;-1.296;2023-07-24T15:49:31;5;4;
73623;PMS5003;61921;53.226;-1.296;2023-07-24T15:51:57;6;5;
73623;PMS5003;61921;53.226;-1.296;2023-07-24T15:54:22;4;4;
73623;PMS5003;61921;53.226;-1.296;2023-07-24T15:56:47;3;2;
73623;PMS5003;61921;53.226;-1.296;2023-07-24T15:59:12;3;2;
73623;PMS5003;61921;53.226;-1.296;2023-07-24T16:01:37;1;1;
73623;PMS5003;61921;53.226;-1.296;2023-07-24T16:04:03;2;2;
73623;PMS5003;61921;53.226;-1.296;2023-07-24T16:06:28;4;4;
73623;PMS5003;61921;53.226;-1.296;2023-07-24T16:08:54;4;3;
73623;PMS5003;61921;53.226;-1.296;2023-07-24T16:11:19;3;3;
73623;PMS5003;61921;53.226;-1.296;2023-07-24T16:13:45;6;4;
73623;PMS5003;61921;53.226;-1.296;2023-07-24T16:16:10;5;4;
73623;PMS5003;61921;53.226;-1.296;2023-07-24T16:18:35;4;4;
73623;PMS5003;61921;53.226;-1.296;2023-07-24T16:21:00;4;4;